Terminal Aerodrome Forecast
Issued by NWS Sioux Falls, SD

Home | Current Version | Previous Version | Graphics & Text | Print | Product List | Glossary Off
Versions: 1 2 3 4 5 6 7 8 9 10 11 12 13 14 15 16 17 18 19 20 21 22 23 24 25 26 27 28 29 30 31 32 33 34 35 36 37 38 39 40 41 42 43 44

000
FTUS43 KFSD 292304 AAB
TAFSUX
TAF AMD
KSUX 292304Z 2923/3018 28004KT P6SM SCT012 BKN080
      TEMPO 3000/3001 2SM +TSRA BKN015CB
     FM300100 32004KT P6SM BKN100
     FM300500 32004KT P6SM SKC
     FM300700 33005KT 4SM BR FEW250
      TEMPO 3010/3014 1/2SM FG
     FM301400 33005KT 2SM BR SKC
     FM301600 32004KT P6SM SKC=

USA.gov is the U.S. government's official web portal to all federal, state and local government web resources and services.